Cmb Mae — VRHQ4 — position and weather

sailwx.info

Track history (hours):
 
Tides and Currents Weather Stations Pressure Air Temp Water Temp Dewpoint Dewpoint Depression Visibility Wind Speed Wind Dir Waves Ship Positions

Cmb Mae

Last reported at 2018-Apr-19 17:26 UTC. Time now 2018-Apr-19 17:35 UTC.
Position N 29°45' W 095°10'.

Length 180 m; draft 8.5 m.

Type: Cargo ship. MMSI: 477962900.

Date/timePositionNaut miles runAvg speedWind from/ knotsBaromVisibWave heightAir tempDewpointWater temp
2018-Apr-19 17:26N 29°45' W 095°10'0 0.0
2018-Apr-19 16:58N 29°45' W 095°10'2 3.2
2018-Apr-19 16:30N 29°44' W 095°09'3 5.5
2018-Apr-19 16:00N 29°45' W 095°06'3 5.2
2018-Apr-19 15:30N 29°44' W 095°03'4 7.4
2018-Apr-19 14:59N 29°42' W 094°59'5 9.6
2018-Apr-19 14:31N 29°37' W 094°58'510.8
2018-Apr-19 14:01N 29°33' W 094°54'713.9
2018-Apr-19 13:30N 29°27' W 094°50'39 8.5
2018-Apr-19 08:57N 29°04' W 094°14'613.1
2018-Apr-19 08:30N 29°02' W 094°08'613.1
2018-Apr-19 08:00N 28°58' W 094°02'713.2
2018-Apr-19 07:30N 28°54' W 093°57'1413.4
2018-Apr-19 06:29N 28°46' W 093°44'  
2018-Apr-10 18:57N 25°30' W 079°29'810.9
2018-Apr-10 18:12N 25°38' W 079°28'3111.0
2018-Apr-10 15:21N 26°09' W 079°21'5411.4
2018-Apr-10 10:37N 26°14' W 078°21'213.3
2018-Apr-10 10:30N 26°13' W 078°20'713.3
2018-Apr-10 10:00N 26°10' W 078°13'1113.3
2018-Apr-10 09:11N 26°06' W 078°02'412.9
2018-Apr-10 08:50N 26°04' W 077°57'412.6
2018-Apr-10 08:31N 26°02' W 077°53'611.7
2018-Apr-10 08:00N 25°60' W 077°47'1311.7
2018-Apr-10 06:52N 25°54' W 077°34'411.5
2018-Apr-10 06:30N 25°52' W 077°30'611.5
2018-Apr-10 06:00N 25°50' W 077°24'712.8
2018-Apr-10 05:28N 25°47' W 077°17'612.4
2018-Apr-10 04:59N 25°46' W 077°11'612.1
2018-Apr-10 04:30N 25°46' W 077°04'611.9
2018-Apr-10 04:00N 25°46' W 076°58'612.0
2018-Apr-10 03:30N 25°47' W 076°51'2012.8
2018-Apr-10 01:54N 25°49' W 076°28'  
Track history (hours):
 
Tides and Currents Weather Stations Pressure Air Temp Water Temp Dewpoint Dewpoint Depression Visibility Wind Speed Wind Dir Waves Ship Positions

Cmb Mae

Last reported at 2018-Apr-19 17:26 UTC. Time now 2018-Apr-19 17:35 UTC.
Position N 29°45' W 095°10'.

Length 180 m; draft 8.5 m.

Type: Cargo ship. MMSI: 477962900.

Date/timePositionNaut miles runAvg speedWind from/ knotsBaromVisibWave heightAir tempDewpointWater temp
2018-Apr-19 17:26N 29°45' W 095°10'0 0.0
2018-Apr-19 16:58N 29°45' W 095°10'2 3.2
2018-Apr-19 16:30N 29°44' W 095°09'3 5.5
2018-Apr-19 16:00N 29°45' W 095°06'3 5.2
2018-Apr-19 15:30N 29°44' W 095°03'4 7.4
2018-Apr-19 14:59N 29°42' W 094°59'5 9.6
2018-Apr-19 14:31N 29°37' W 094°58'510.8
2018-Apr-19 14:01N 29°33' W 094°54'713.9
2018-Apr-19 13:30N 29°27' W 094°50'39 8.5
2018-Apr-19 08:57N 29°04' W 094°14'613.1
2018-Apr-19 08:30N 29°02' W 094°08'613.1
2018-Apr-19 08:00N 28°58' W 094°02'713.2
2018-Apr-19 07:30N 28°54' W 093°57'1413.4
2018-Apr-19 06:29N 28°46' W 093°44'  
2018-Apr-10 18:57N 25°30' W 079°29'810.9
2018-Apr-10 18:12N 25°38' W 079°28'3111.0
2018-Apr-10 15:21N 26°09' W 079°21'5411.4
2018-Apr-10 10:37N 26°14' W 078°21'213.3
2018-Apr-10 10:30N 26°13' W 078°20'713.3
2018-Apr-10 10:00N 26°10' W 078°13'1113.3
2018-Apr-10 09:11N 26°06' W 078°02'412.9
2018-Apr-10 08:50N 26°04' W 077°57'412.6
2018-Apr-10 08:31N 26°02' W 077°53'611.7
2018-Apr-10 08:00N 25°60' W 077°47'1311.7
2018-Apr-10 06:52N 25°54' W 077°34'411.5
2018-Apr-10 06:30N 25°52' W 077°30'611.5
2018-Apr-10 06:00N 25°50' W 077°24'712.8
2018-Apr-10 05:28N 25°47' W 077°17'612.4
2018-Apr-10 04:59N 25°46' W 077°11'612.1
2018-Apr-10 04:30N 25°46' W 077°04'611.9
2018-Apr-10 04:00N 25°46' W 076°58'612.0
2018-Apr-10 03:30N 25°47' W 076°51'2012.8
2018-Apr-10 01:54N 25°49' W 076°28'  

Dump ship's entire track history